createdAt,value
2018-09-18T00:01:22.330Z,16.90
2018-09-18T00:03:50.362Z,16.90
2018-09-18T00:06:18.382Z,16.80
2018-09-18T00:08:46.436Z,16.90
2018-09-18T00:11:14.505Z,16.70
2018-09-18T00:13:42.532Z,16.70
2018-09-18T00:16:10.539Z,16.60
2018-09-18T00:18:38.589Z,16.50
2018-09-18T00:21:06.584Z,16.50
2018-09-18T00:23:34.669Z,16.60
2018-09-18T00:26:02.681Z,16.50
2018-09-18T00:28:30.688Z,16.50
2018-09-18T00:30:58.720Z,16.50
2018-09-18T00:33:26.732Z,16.40
2018-09-18T00:35:54.776Z,16.40
2018-09-18T00:38:22.776Z,16.30
2018-09-18T00:40:50.828Z,16.30
2018-09-18T00:43:18.844Z,16.20
2018-09-18T00:45:46.873Z,16.30
2018-09-18T00:48:14.904Z,16.20
2018-09-18T00:50:42.920Z,16.20
2018-09-18T00:53:10.932Z,16.10
2018-09-18T00:55:38.964Z,16.10
2018-09-18T00:58:06.971Z,16.20
2018-09-18T01:00:35.004Z,16.10
2018-09-18T01:03:03.072Z,16.10
2018-09-18T01:05:31.188Z,16.00
2018-09-18T01:07:59.224Z,16.00
2018-09-18T01:10:27.262Z,16.00
2018-09-18T01:12:55.268Z,16.10
2018-09-18T01:15:23.291Z,16.00
2018-09-18T01:17:51.331Z,16.00
2018-09-18T01:20:19.364Z,15.90
2018-09-18T01:22:47.377Z,15.90
2018-09-18T01:25:15.412Z,15.90
2018-09-18T01:27:43.431Z,16.00
2018-09-18T01:30:11.484Z,16.00
2018-09-18T01:32:39.552Z,15.90
2018-09-18T01:35:07.590Z,16.00
2018-09-18T01:37:35.628Z,16.00
2018-09-18T01:40:03.700Z,16.00
2018-09-18T01:42:31.763Z,16.10
2018-09-18T01:44:59.779Z,16.10
2018-09-18T01:47:27.818Z,16.20
2018-09-18T01:49:55.864Z,16.20
2018-09-18T01:52:23.900Z,16.20
2018-09-18T01:54:51.947Z,16.20
2018-09-18T01:57:19.963Z,16.20
2018-09-18T01:59:48.012Z,16.20
2018-09-18T02:02:16.042Z,16.20
2018-09-18T02:04:44.076Z,16.30
2018-09-18T02:07:12.092Z,16.30
2018-09-18T02:09:40.131Z,16.30
2018-09-18T02:12:08.180Z,16.40
2018-09-18T02:14:36.216Z,16.40
2018-09-18T02:17:04.935Z,16.40
2018-09-18T02:19:32.975Z,16.40
2018-09-18T02:22:01.028Z,16.40
2018-09-18T02:24:29.081Z,16.40
2018-09-18T02:26:57.112Z,16.40
2018-09-18T02:29:25.127Z,16.50
2018-09-18T02:31:53.189Z,16.50
2018-09-18T02:34:21.179Z,16.60
2018-09-18T02:36:49.225Z,16.60
2018-09-18T02:39:17.242Z,16.50
2018-09-18T02:41:45.288Z,16.50
2018-09-18T02:44:13.304Z,16.60
2018-09-18T02:46:41.359Z,16.60
2018-09-18T02:49:09.376Z,16.60
2018-09-18T02:51:37.404Z,16.60
2018-09-18T02:54:05.450Z,16.70
2018-09-18T02:56:33.485Z,16.70
2018-09-18T02:59:01.532Z,16.70
2018-09-18T03:01:29.552Z,16.70
2018-09-18T03:03:57.588Z,16.70
2018-09-18T03:06:25.631Z,16.60
2018-09-18T03:08:53.673Z,16.60
2018-09-18T03:11:21.863Z,16.50
2018-09-18T03:13:49.760Z,16.50
2018-09-18T03:16:17.796Z,16.50
2018-09-18T03:18:45.817Z,16.40
2018-09-18T03:21:13.864Z,16.50
2018-09-18T03:23:41.908Z,16.50
2018-09-18T03:26:10.184Z,16.50
2018-09-18T03:28:38.569Z,16.50
2018-09-18T03:31:06.623Z,16.50
2018-09-18T03:33:34.708Z,16.40
2018-09-18T03:36:02.749Z,16.40
2018-09-18T03:38:30.770Z,16.30
2018-09-18T03:40:58.797Z,16.40
2018-09-18T03:43:26.833Z,16.40
2018-09-18T03:45:54.861Z,16.30
2018-09-18T03:48:22.885Z,16.40
2018-09-18T03:50:50.929Z,16.40
2018-09-18T03:53:18.956Z,16.30
2018-09-18T03:55:48.168Z,16.40
2018-09-18T03:58:16.195Z,16.40
2018-09-18T04:00:44.214Z,16.40
2018-09-18T04:03:12.232Z,16.30
2018-09-18T04:05:40.243Z,16.30
2018-09-18T04:08:08.294Z,16.30
2018-09-18T04:10:36.326Z,16.30
2018-09-18T04:13:04.333Z,16.20
2018-09-18T04:15:32.340Z,16.20
2018-09-18T04:18:00.372Z,16.20
2018-09-18T04:20:28.408Z,16.10
2018-09-18T04:22:56.439Z,16.10
2018-09-18T04:25:24.460Z,16.10
2018-09-18T04:27:52.478Z,16.00
2018-09-18T04:30:20.524Z,16.00
2018-09-18T04:32:48.576Z,16.00
2018-09-18T04:35:16.612Z,16.00
2018-09-18T04:37:44.636Z,16.10
2018-09-18T04:40:12.692Z,16.10
2018-09-18T04:42:40.808Z,16.00
2018-09-18T04:45:08.857Z,16.00
2018-09-18T04:47:36.892Z,16.00
2018-09-18T04:50:04.961Z,15.90
2018-09-18T04:52:33.021Z,15.90
2018-09-18T04:55:01.156Z,15.90
2018-09-18T04:57:29.091Z,15.90
2018-09-18T04:59:57.142Z,15.90
2018-09-18T05:02:25.164Z,15.90
2018-09-18T05:04:53.203Z,15.90
2018-09-18T05:07:21.245Z,15.80
2018-09-18T05:09:49.284Z,15.80
2018-09-18T05:12:17.342Z,15.80
2018-09-18T05:14:45.380Z,15.90
2018-09-18T05:17:13.408Z,15.90
2018-09-18T05:19:41.452Z,15.90
2018-09-18T05:22:09.496Z,16.00
2018-09-18T05:24:37.532Z,16.00
2018-09-18T05:27:05.896Z,16.00
2018-09-18T05:29:33.956Z,16.00
2018-09-18T05:32:02.028Z,16.00
2018-09-18T05:34:30.072Z,16.00
2018-09-18T05:36:58.140Z,15.90
2018-09-18T05:39:26.168Z,16.00
2018-09-18T05:41:54.232Z,16.00
2018-09-18T05:44:22.260Z,16.00
2018-09-18T05:46:50.294Z,16.00
2018-09-18T05:49:18.352Z,16.10
2018-09-18T05:51:46.397Z,16.10
2018-09-18T05:54:14.439Z,16.20
2018-09-18T05:56:42.818Z,16.20
2018-09-18T05:59:10.872Z,16.30
2018-09-18T06:01:38.901Z,16.30
2018-09-18T06:04:06.953Z,16.30
2018-09-18T06:06:35.032Z,16.40
2018-09-18T06:09:03.119Z,16.40
2018-09-18T06:11:31.144Z,16.40
2018-09-18T06:13:59.192Z,16.50
2018-09-18T06:16:27.227Z,16.50
2018-09-18T06:18:55.478Z,16.50
2018-09-18T06:21:23.452Z,16.60
2018-09-18T06:23:51.512Z,16.70
2018-09-18T06:26:19.637Z,16.70
2018-09-18T06:28:47.587Z,16.70
2018-09-18T06:31:15.620Z,16.80
2018-09-18T06:33:43.668Z,16.90
2018-09-18T06:36:11.689Z,16.90
2018-09-18T06:38:39.728Z,16.90
2018-09-18T06:41:07.735Z,17.00
2018-09-18T06:43:35.780Z,17.00
2018-09-18T06:46:03.792Z,17.10
2018-09-18T06:48:31.828Z,17.10
2018-09-18T06:50:59.868Z,17.20
2018-09-18T06:53:27.904Z,17.20
2018-09-18T06:55:55.945Z,17.30
2018-09-18T06:58:24.000Z,17.40
2018-09-18T07:00:52.055Z,17.50
2018-09-18T07:03:20.072Z,17.50
2018-09-18T07:05:48.169Z,17.60
2018-09-18T07:08:16.248Z,17.60
2018-09-18T07:10:44.287Z,17.70
2018-09-18T07:13:12.311Z,17.70
2018-09-18T07:15:40.512Z,17.80
2018-09-18T07:18:08.628Z,17.90
2018-09-18T07:20:36.601Z,18.00
2018-09-18T07:23:04.616Z,18.10
2018-09-18T07:25:32.653Z,18.20
2018-09-18T07:28:00.676Z,18.30
2018-09-18T07:30:28.740Z,18.30
2018-09-18T07:32:56.786Z,18.40
2018-09-18T07:35:24.808Z,18.50
2018-09-18T07:37:52.836Z,18.60
2018-09-18T07:40:20.861Z,18.60
2018-09-18T07:42:48.860Z,18.60
2018-09-18T07:45:16.888Z,18.60
2018-09-18T07:47:44.932Z,18.60
2018-09-18T07:50:13.240Z,18.70
2018-09-18T07:52:41.260Z,18.70
2018-09-18T07:55:09.359Z,18.80
2018-09-18T07:57:37.392Z,18.90
2018-09-18T08:00:05.597Z,19.00
2018-09-18T08:02:33.599Z,19.10
2018-09-18T08:05:01.634Z,19.20
2018-09-18T08:07:29.640Z,19.30
2018-09-18T08:09:57.660Z,19.40
2018-09-18T08:12:25.689Z,19.50
2018-09-18T08:14:53.746Z,19.60
2018-09-18T08:17:21.812Z,19.70
2018-09-18T08:19:49.855Z,19.70
2018-09-18T08:22:17.849Z,19.80
2018-09-18T08:24:45.874Z,19.90
2018-09-18T08:27:14.001Z,20.00
2018-09-18T08:29:42.029Z,20.20
2018-09-18T08:32:10.057Z,20.30
2018-09-18T08:34:38.129Z,20.50
2018-09-18T08:37:06.153Z,20.50
2018-09-18T08:39:34.190Z,20.70
2018-09-18T08:42:02.259Z,20.80
2018-09-18T08:44:30.287Z,20.80
2018-09-18T08:46:58.318Z,20.90
2018-09-18T08:49:26.365Z,21.00
2018-09-18T08:51:54.443Z,21.00
2018-09-18T08:54:22.429Z,21.10
2018-09-18T08:56:50.535Z,21.20
2018-09-18T08:59:18.541Z,21.40
2018-09-18T09:01:46.579Z,21.50
2018-09-18T09:04:14.620Z,21.70
2018-09-18T09:06:42.780Z,21.80
2018-09-18T09:09:13.503Z,21.90
2018-09-18T09:11:41.840Z,22.00
2018-09-18T09:14:09.882Z,22.10
2018-09-18T09:16:37.924Z,22.20
2018-09-18T09:19:05.985Z,22.30
2018-09-18T09:21:34.023Z,22.40
2018-09-18T09:24:02.089Z,22.50
2018-09-18T09:26:30.294Z,22.60
2018-09-18T09:28:58.276Z,22.80
2018-09-18T09:31:26.322Z,23.00
2018-09-18T09:33:54.320Z,23.00
2018-09-18T09:36:22.356Z,23.20
2018-09-18T09:38:50.428Z,23.40
2018-09-18T09:41:18.409Z,23.40
2018-09-18T09:43:46.487Z,23.60
2018-09-18T09:46:14.442Z,23.60
2018-09-18T09:48:42.449Z,23.60
2018-09-18T09:51:10.526Z,23.70
2018-09-18T09:53:38.542Z,23.80
2018-09-18T09:56:06.740Z,23.90
2018-09-18T09:58:34.757Z,24.00
2018-09-18T10:01:08.148Z,24.20
2018-09-18T10:03:36.160Z,24.30
2018-09-18T10:06:04.168Z,24.50
2018-09-18T10:08:32.175Z,24.70
2018-09-18T10:11:00.219Z,24.80
2018-09-18T10:13:28.237Z,24.90
2018-09-18T10:15:56.252Z,25.00
2018-09-18T10:18:24.272Z,25.10
2018-09-18T10:20:52.306Z,25.30
2018-09-18T10:23:20.302Z,25.40
2018-09-18T10:25:48.352Z,25.50
2018-09-18T10:28:16.351Z,25.60
2018-09-18T10:30:44.387Z,25.80
2018-09-18T10:33:12.415Z,25.90
2018-09-18T10:35:40.468Z,25.90
2018-09-18T10:38:08.482Z,26.00
2018-09-18T10:40:36.515Z,26.10
2018-09-18T10:43:04.525Z,26.20
2018-09-18T10:45:32.543Z,26.30
2018-09-18T10:48:00.590Z,26.40
2018-09-18T10:50:28.560Z,26.50
2018-09-18T10:52:56.570Z,26.70
2018-09-18T10:55:24.678Z,26.90
2018-09-18T10:57:52.676Z,26.90
2018-09-18T11:00:20.722Z,27.10
2018-09-18T11:02:48.776Z,27.10
2018-09-18T11:05:16.822Z,27.20
2018-09-18T11:07:44.837Z,27.30
2018-09-18T11:10:12.815Z,27.40
2018-09-18T11:12:40.873Z,27.40
2018-09-18T11:15:08.875Z,27.40
2018-09-18T11:17:36.878Z,27.50
2018-09-18T11:20:05.290Z,27.60
2018-09-18T11:22:33.314Z,27.70
2018-09-18T11:25:01.401Z,27.90
2018-09-18T11:27:29.469Z,27.90
2018-09-18T11:29:57.377Z,27.90
2018-09-18T11:32:25.436Z,28.00
2018-09-18T11:34:53.484Z,28.20
2018-09-18T11:37:21.604Z,28.20
2018-09-18T11:39:49.764Z,28.30
2018-09-18T11:42:17.935Z,28.40
2018-09-18T11:44:45.971Z,28.40
2018-09-18T11:47:14.041Z,28.40
2018-09-18T11:49:42.085Z,28.50
2018-09-18T11:52:10.218Z,28.60
2018-09-18T11:54:38.260Z,28.70
2018-09-18T11:57:06.416Z,28.80
2018-09-18T11:59:34.362Z,28.90
2018-09-18T12:02:02.416Z,29.00
2018-09-18T12:04:30.433Z,29.10
2018-09-18T12:06:58.510Z,29.20
2018-09-18T12:09:26.512Z,29.20
2018-09-18T12:11:54.550Z,29.20
2018-09-18T12:14:22.600Z,29.30
2018-09-18T12:16:50.695Z,29.40
2018-09-18T12:19:18.636Z,29.40
2018-09-18T12:21:46.640Z,29.50
2018-09-18T12:24:14.641Z,29.60
2018-09-18T12:26:42.676Z,29.60
2018-09-18T12:29:10.700Z,29.60
2018-09-18T12:31:38.737Z,29.70
2018-09-18T12:34:06.814Z,29.70
2018-09-18T12:36:34.882Z,29.80
2018-09-18T12:39:02.952Z,29.90
2018-09-18T12:41:31.173Z,29.90
2018-09-18T12:43:59.057Z,29.80
2018-09-18T12:46:27.076Z,29.90
2018-09-18T12:48:55.177Z,29.90
2018-09-18T12:51:23.195Z,30.00
2018-09-18T12:53:51.358Z,30.00
2018-09-18T12:56:19.296Z,30.10
2018-09-18T12:58:47.401Z,30.10
2018-09-18T13:01:15.414Z,30.10
2018-09-18T13:03:43.448Z,30.10
2018-09-18T13:06:11.577Z,30.10
2018-09-18T13:08:39.577Z,30.10
2018-09-18T13:11:07.623Z,30.20
2018-09-18T13:13:36.061Z,30.20
2018-09-18T13:16:04.085Z,30.20
2018-09-18T13:18:32.284Z,30.30
2018-09-18T13:21:00.391Z,30.30
2018-09-18T13:26:10.104Z,30.50
2018-09-18T13:28:38.151Z,30.50
2018-09-18T13:31:06.170Z,30.50
2018-09-18T13:33:34.205Z,30.60
2018-09-18T13:36:02.213Z,30.60
2018-09-18T13:38:30.220Z,30.70
2018-09-18T13:40:58.328Z,30.70
2018-09-18T13:43:26.415Z,30.80
2018-09-18T13:45:54.423Z,30.80
2018-09-18T13:48:22.548Z,30.80
2018-09-18T13:50:50.575Z,28.00
2018-09-18T13:53:18.640Z,30.70
2018-09-18T13:55:46.645Z,30.90
2018-09-18T13:58:14.667Z,30.90
2018-09-18T14:00:42.668Z,31.00
2018-09-18T14:03:10.879Z,31.00
2018-09-18T14:05:39.023Z,31.00
2018-09-18T14:08:06.977Z,30.90
2018-09-18T14:10:34.930Z,30.90
2018-09-18T14:13:02.959Z,31.10
2018-09-18T14:15:30.990Z,31.10
2018-09-18T14:17:59.013Z,31.10
2018-09-18T14:20:27.116Z,31.20
2018-09-18T14:22:55.045Z,31.10
2018-09-18T14:25:23.073Z,31.20
2018-09-18T14:27:51.108Z,31.30
2018-09-18T14:30:19.168Z,31.30
2018-09-18T14:32:47.187Z,31.20
2018-09-18T14:35:15.197Z,31.20
2018-09-18T14:37:43.241Z,31.20
2018-09-18T14:40:11.247Z,31.20
2018-09-18T14:42:39.244Z,31.30
2018-09-18T14:45:07.344Z,31.30
2018-09-18T14:47:35.420Z,31.50
2018-09-18T14:50:03.452Z,31.60
2018-09-18T14:52:31.463Z,31.70
2018-09-18T14:54:59.472Z,31.60
2018-09-18T14:57:27.469Z,31.60
2018-09-18T14:59:55.519Z,31.60
2018-09-18T15:02:23.540Z,31.70
2018-09-18T15:04:51.561Z,31.70
2018-09-18T15:07:19.608Z,31.80
2018-09-18T15:09:47.581Z,31.80
2018-09-18T15:12:15.628Z,31.90
2018-09-18T15:14:43.748Z,32.00
2018-09-18T15:17:11.656Z,32.10
2018-09-18T15:19:39.683Z,32.30
2018-09-18T15:22:07.750Z,32.30
2018-09-18T15:24:35.737Z,32.30
2018-09-18T15:27:03.828Z,32.30
2018-09-18T15:29:31.852Z,32.40
2018-09-18T15:31:59.950Z,32.60
2018-09-18T15:34:27.962Z,32.60
2018-09-18T15:36:55.968Z,32.70
2018-09-18T15:39:24.041Z,32.80
2018-09-18T15:41:52.031Z,32.90
2018-09-18T15:44:20.050Z,33.00
2018-09-18T15:46:48.124Z,33.30
2018-09-18T15:49:16.177Z,33.70
2018-09-18T15:51:44.235Z,34.70
2018-09-18T15:54:12.257Z,35.50
2018-09-18T15:56:40.270Z,36.30
2018-09-18T15:59:08.261Z,37.10
2018-09-18T16:01:36.297Z,37.60
2018-09-18T16:04:04.317Z,38.00
2018-09-18T16:06:32.352Z,38.30
2018-09-18T16:09:00.361Z,38.80
2018-09-18T16:11:28.473Z,39.00
2018-09-18T16:13:56.536Z,38.40
2018-09-18T16:16:24.596Z,37.40
2018-09-18T16:18:52.589Z,36.40
2018-09-18T16:21:20.605Z,35.70
2018-09-18T16:23:48.613Z,35.30
2018-09-18T16:26:16.670Z,35.00
2018-09-18T16:28:44.671Z,34.80
2018-09-18T16:31:12.703Z,34.50
2018-09-18T16:33:40.717Z,34.00
2018-09-18T16:36:08.909Z,33.60
2018-09-18T16:38:37.068Z,33.50
2018-09-18T16:41:05.456Z,33.20
2018-09-18T16:43:33.624Z,33.10
2018-09-18T16:46:01.663Z,32.90
2018-09-18T16:48:29.725Z,32.70
2018-09-18T16:50:57.746Z,32.50
2018-09-18T16:53:25.736Z,32.00
2018-09-18T16:55:53.769Z,31.60
2018-09-18T16:58:21.808Z,31.40
2018-09-18T17:00:49.875Z,31.20
2018-09-18T17:03:17.890Z,31.00
2018-09-18T17:05:45.891Z,30.70
2018-09-18T17:08:13.912Z,30.50
2018-09-18T17:10:41.977Z,30.20
2018-09-18T17:13:10.005Z,29.90
2018-09-18T17:15:37.972Z,29.10
2018-09-18T17:18:06.438Z,28.10
2018-09-18T17:20:34.471Z,27.40
2018-09-18T17:23:02.588Z,26.70
2018-09-18T17:25:30.634Z,26.20
2018-09-18T17:27:58.670Z,25.90
2018-09-18T17:30:26.720Z,25.60
2018-09-18T17:32:54.819Z,25.40
2018-09-18T17:35:22.843Z,25.20
2018-09-18T17:37:50.879Z,25.00
2018-09-18T17:40:18.929Z,24.90
2018-09-18T17:42:46.988Z,24.80
2018-09-18T17:45:15.008Z,24.60
2018-09-18T17:47:43.174Z,24.40
2018-09-18T17:50:11.057Z,24.30
2018-09-18T17:52:39.104Z,24.30
2018-09-18T17:55:07.466Z,24.30
2018-09-18T17:57:35.480Z,24.20
2018-09-18T18:00:03.570Z,23.90
2018-09-18T18:02:31.600Z,23.60
2018-09-18T18:04:59.612Z,23.40
2018-09-18T18:07:27.649Z,23.40
2018-09-18T18:09:55.704Z,23.30
2018-09-18T18:12:23.764Z,23.20
2018-09-18T18:14:51.818Z,23.00
2018-09-18T18:17:19.881Z,23.00
2018-09-18T18:19:47.878Z,23.00
2018-09-18T18:22:15.899Z,22.80
2018-09-18T18:24:43.931Z,22.70
2018-09-18T18:27:11.949Z,22.50
2018-09-18T18:29:40.018Z,22.40
2018-09-18T18:32:08.237Z,22.20
2018-09-18T18:34:36.309Z,22.10
2018-09-18T18:37:04.379Z,22.00
2018-09-18T18:39:32.400Z,21.90
2018-09-18T18:42:00.444Z,21.80
2018-09-18T18:44:28.479Z,21.60
2018-09-18T18:46:56.525Z,21.50
2018-09-18T18:49:24.564Z,21.30
2018-09-18T18:51:52.610Z,21.30
2018-09-18T18:54:20.649Z,21.30
2018-09-18T18:56:48.708Z,21.20
2018-09-18T18:59:16.772Z,21.10
2018-09-18T19:01:44.834Z,21.10
2018-09-18T19:04:12.894Z,21.00
2018-09-18T19:06:41.005Z,21.00
2018-09-18T19:09:08.974Z,21.00
2018-09-18T19:11:37.039Z,20.90
2018-09-18T19:14:05.077Z,20.90
2018-09-18T19:16:33.133Z,20.80
2018-09-18T19:19:01.130Z,20.80
2018-09-18T19:21:29.171Z,20.80
2018-09-18T19:23:57.192Z,20.70
2018-09-18T19:26:25.209Z,20.70
2018-09-18T19:28:53.246Z,20.70
2018-09-18T19:31:21.281Z,20.60
2018-09-18T19:33:49.313Z,20.60
2018-09-18T19:36:17.333Z,20.60
2018-09-18T19:38:45.365Z,20.60
2018-09-18T19:41:13.392Z,20.50
2018-09-18T19:43:41.416Z,20.40
2018-09-18T19:46:09.431Z,20.30
2018-09-18T19:48:37.608Z,20.30
2018-09-18T19:51:05.717Z,20.30
2018-09-18T19:53:33.739Z,20.30
2018-09-18T19:56:01.770Z,20.20
2018-09-18T19:58:29.796Z,20.20
2018-09-18T20:00:57.856Z,20.10
2018-09-18T20:03:26.154Z,20.10
2018-09-18T20:05:54.147Z,20.10
2018-09-18T20:08:22.156Z,20.10
2018-09-18T20:10:50.345Z,20.00
2018-09-18T20:13:18.408Z,20.00
2018-09-18T20:15:46.432Z,20.00
2018-09-18T20:18:14.456Z,19.90
2018-09-18T20:20:42.545Z,19.90
2018-09-18T20:23:10.501Z,19.80
2018-09-18T20:25:38.669Z,19.80
2018-09-18T20:28:06.830Z,19.80
2018-09-18T20:30:34.909Z,19.70
2018-09-18T20:33:02.987Z,19.70
2018-09-18T20:35:31.053Z,19.70
2018-09-18T20:37:59.101Z,19.70
2018-09-18T20:40:27.146Z,19.70
2018-09-18T20:42:55.366Z,19.60
2018-09-18T20:45:23.394Z,19.60
2018-09-18T20:47:51.427Z,19.70
2018-09-18T20:50:22.240Z,19.70
2018-09-18T20:52:51.495Z,19.70
2018-09-18T20:55:19.714Z,19.70
2018-09-18T20:57:47.789Z,19.70
2018-09-18T21:00:15.846Z,19.70
2018-09-18T21:02:43.899Z,19.60
2018-09-18T21:05:11.940Z,19.60
2018-09-18T21:07:39.996Z,19.60
2018-09-18T21:10:08.028Z,19.60
2018-09-18T21:12:36.068Z,19.60
2018-09-18T21:15:04.166Z,19.50
2018-09-18T21:17:32.199Z,19.40
2018-09-18T21:20:00.253Z,19.40
2018-09-18T21:22:28.312Z,19.40
2018-09-18T21:25:09.613Z,19.40
2018-09-18T21:27:37.639Z,19.40
2018-09-18T21:30:05.689Z,19.40
2018-09-18T21:32:33.803Z,19.30
2018-09-18T21:35:01.782Z,19.30
2018-09-18T21:37:29.828Z,19.20
2018-09-18T21:39:57.871Z,19.10
2018-09-18T21:42:25.905Z,19.10
2018-09-18T21:44:53.971Z,19.00
2018-09-18T21:47:21.990Z,19.10
2018-09-18T21:49:50.032Z,19.10
2018-09-18T21:52:18.095Z,19.00
2018-09-18T21:54:46.156Z,19.00
2018-09-18T21:57:14.213Z,19.00
2018-09-18T21:59:42.251Z,18.90
2018-09-18T22:02:10.310Z,18.90
2018-09-18T22:04:38.382Z,18.90
2018-09-18T22:07:06.557Z,18.90
2018-09-18T22:09:34.475Z,18.80
2018-09-18T22:12:02.571Z,18.80
2018-09-18T22:14:30.573Z,18.90
2018-09-18T22:16:58.657Z,18.80
2018-09-18T22:19:26.746Z,18.80
2018-09-18T22:21:54.800Z,18.90
2018-09-18T22:24:22.816Z,19.00
2018-09-18T22:26:50.874Z,18.90
2018-09-18T22:29:18.932Z,18.90
2018-09-18T22:31:46.998Z,18.80
2018-09-18T22:34:15.045Z,18.70
2018-09-18T22:36:43.085Z,18.60
2018-09-18T22:39:11.127Z,18.60
2018-09-18T22:41:39.261Z,18.60
2018-09-18T22:44:07.424Z,18.50
2018-09-18T22:46:35.707Z,18.50
2018-09-18T22:49:03.729Z,18.50
2018-09-18T22:51:31.837Z,18.40
2018-09-18T22:53:59.854Z,18.40
2018-09-18T22:56:27.891Z,18.30
2018-09-18T22:58:55.932Z,18.40
2018-09-18T23:01:23.964Z,18.30
2018-09-18T23:03:52.037Z,18.30
2018-09-18T23:06:20.085Z,18.40
2018-09-18T23:08:48.120Z,18.30
2018-09-18T23:11:16.165Z,18.30
2018-09-18T23:13:44.232Z,18.40
2018-09-18T23:16:12.264Z,18.40
2018-09-18T23:18:40.336Z,18.40
2018-09-18T23:21:08.337Z,18.30
2018-09-18T23:23:36.365Z,18.30
2018-09-18T23:26:04.467Z,18.30
2018-09-18T23:28:32.432Z,18.30
2018-09-18T23:31:00.468Z,18.30
2018-09-18T23:33:28.502Z,18.30
2018-09-18T23:35:56.511Z,18.30
2018-09-18T23:38:24.515Z,18.30
2018-09-18T23:40:52.595Z,18.20
2018-09-18T23:43:20.587Z,18.20
2018-09-18T23:45:48.599Z,18.20
2018-09-18T23:48:16.632Z,18.20
2018-09-18T23:50:44.682Z,18.10
2018-09-18T23:53:12.718Z,18.10
2018-09-18T23:55:40.750Z,18.00
2018-09-18T23:58:08.764Z,18.00
